Phillips Army Air Field
KAPG : now visible

Airfield :











YOU CAN JOIN US ON...

 
LOGIN :

Register | Disclaimer

   EN    FR    IT 

 









Legend :    VFR   Marginal VFR   IFR   Intensive IFR   Very Intensive IFR
Visi :
Ceiling :
>= 8 km
>= 3000ft
5 to 8 km
1000 to 3000 ft
1500m to 5 km
500 to 1000 ft
800 to 1500m
200 to 500 ft
< 800m
< 200 ft
Symbols :   Thunderstorms  Fog  Heavy snow  Heavy precipitations  Wind > 20 kt






- Airport Elevation : 57 ft


KAPG - Phillips Army Air Field

CURRENT METAR :
  • 041858Z AUTO 25011KT 10SM FEW030 BKN045 BKN060 26/21 A2979 RMK AO2 RAB35E45 SLP091 P0000 T02560213 $

EXPIRED METARs :
  • 041850Z AUTO 25012KT 10SM FEW030 BKN045 BKN060 25/21 A2979 RMK AO2 RAB35E45 SLP091 $
  • 041845Z AUTO 26009KT 1 7/8SM HZ FEW030 SCT037 BKN047 OVC060 24/21 A2979 RMK AO2 VIS 1 7/8V8 RAB35E45 SLP091 $
  • 041835Z AUTO 26014KT 8SM -RA FEW027 SCT038 BKN046 24/20 A2978 RMK AO2 RAB35 SLP087 $
  • 041758Z AUTO 25011G19KT 10SM SCT025 BKN044 25/20 A2975 RMK AO2 SLP077 60328 52073 $
  • 041658Z AUTO 25011G17KT 10SM BKN019 BKN026 OVC090 22/20 A2970 RMK AO2 RAE14 CIG 019V025 BKN019 V SCT SLP060 P0027 $

TAF N/A
KZDC FIR / North America



MET'MAP, your aeronautical weather chart ! - Copyright ORBIFLY December 2007 - Disclaimer

ORBIFLY MET'MAP TEAM :

Programming & Development : Alexandra Zaïnal
Concept & original design : Baudouin d'Aumeries
Assistance for programming : Marc-Olivier Méhu
Technical & hardware support : Manuel Goepfert

Contact : metmap@orbifly.com




SOURCES & CREDITS :

   NOAA       Earth
Advisory